sensor_id;sensor_type;location;lat;lon;timestamp;P1;durP1;ratioP1;P2;durP2;ratioP2
3916;SDS011;1973;50.518;7.318;2023-02-15T00:01:34;31.30;;;19.33;;
3916;SDS011;1973;50.518;7.318;2023-02-15T00:04:02;26.07;;;17.73;;
3916;SDS011;1973;50.518;7.318;2023-02-15T00:06:29;31.70;;;20.37;;
3916;SDS011;1973;50.518;7.318;2023-02-15T00:08:56;34.43;;;19.50;;
3916;SDS011;1973;50.518;7.318;2023-02-15T00:11:23;32.07;;;19.27;;
3916;SDS011;1973;50.518;7.318;2023-02-15T00:14:10;35.27;;;21.57;;
3916;SDS011;1973;50.518;7.318;2023-02-15T00:16:39;39.10;;;19.90;;
3916;SDS011;1973;50.518;7.318;2023-02-15T00:19:07;35.17;;;19.53;;
3916;SDS011;1973;50.518;7.318;2023-02-15T00:21:35;39.63;;;22.23;;
3916;SDS011;1973;50.518;7.318;2023-02-15T00:24:03;41.60;;;22.17;;
3916;SDS011;1973;50.518;7.318;2023-02-15T00:26:32;42.57;;;23.73;;
3916;SDS011;1973;50.518;7.318;2023-02-15T00:28:59;33.13;;;19.30;;
3916;SDS011;1973;50.518;7.318;2023-02-15T00:31:26;34.17;;;19.50;;
3916;SDS011;1973;50.518;7.318;2023-02-15T00:33:54;32.37;;;18.73;;
3916;SDS011;1973;50.518;7.318;2023-02-15T00:36:21;34.70;;;18.50;;
3916;SDS011;1973;50.518;7.318;2023-02-15T00:38:47;30.80;;;19.47;;
3916;SDS011;1973;50.518;7.318;2023-02-15T00:41:14;29.30;;;18.30;;
3916;SDS011;1973;50.518;7.318;2023-02-15T00:43:40;27.53;;;17.20;;
3916;SDS011;1973;50.518;7.318;2023-02-15T00:46:06;32.87;;;18.67;;
3916;SDS011;1973;50.518;7.318;2023-02-15T00:48:33;34.13;;;20.90;;
3916;SDS011;1973;50.518;7.318;2023-02-15T00:51:00;42.23;;;22.70;;
3916;SDS011;1973;50.518;7.318;2023-02-15T00:53:27;35.97;;;21.50;;
3916;SDS011;1973;50.518;7.318;2023-02-15T00:55:54;37.00;;;20.63;;
3916;SDS011;1973;50.518;7.318;2023-02-15T00:58:21;35.77;;;20.70;;
3916;SDS011;1973;50.518;7.318;2023-02-15T01:00:47;32.83;;;18.90;;
3916;SDS011;1973;50.518;7.318;2023-02-15T01:03:15;35.93;;;20.73;;
3916;SDS011;1973;50.518;7.318;2023-02-15T01:05:43;35.23;;;20.40;;
3916;SDS011;1973;50.518;7.318;2023-02-15T01:08:09;37.43;;;20.63;;
3916;SDS011;1973;50.518;7.318;2023-02-15T01:10:36;29.30;;;18.00;;
3916;SDS011;1973;50.518;7.318;2023-02-15T01:13:02;33.00;;;19.90;;
3916;SDS011;1973;50.518;7.318;2023-02-15T01:15:29;34.03;;;19.13;;
3916;SDS011;1973;50.518;7.318;2023-02-15T01:17:56;36.90;;;19.43;;
3916;SDS011;1973;50.518;7.318;2023-02-15T01:20:24;31.00;;;18.30;;
3916;SDS011;1973;50.518;7.318;2023-02-15T01:22:54;31.57;;;16.63;;
3916;SDS011;1973;50.518;7.318;2023-02-15T01:25:22;27.27;;;17.57;;
3916;SDS011;1973;50.518;7.318;2023-02-15T01:27:50;30.43;;;18.00;;
3916;SDS011;1973;50.518;7.318;2023-02-15T01:30:16;31.33;;;18.83;;
3916;SDS011;1973;50.518;7.318;2023-02-15T01:32:43;34.20;;;19.10;;
3916;SDS011;1973;50.518;7.318;2023-02-15T01:35:10;30.17;;;17.40;;
3916;SDS011;1973;50.518;7.318;2023-02-15T01:37:37;34.27;;;19.73;;
3916;SDS011;1973;50.518;7.318;2023-02-15T01:40:04;28.13;;;16.37;;
3916;SDS011;1973;50.518;7.318;2023-02-15T01:42:33;33.97;;;19.10;;
3916;SDS011;1973;50.518;7.318;2023-02-15T01:45:01;27.87;;;17.43;;
3916;SDS011;1973;50.518;7.318;2023-02-15T01:47:45;32.13;;;19.07;;
3916;SDS011;1973;50.518;7.318;2023-02-15T01:52:51;29.10;;;18.20;;
3916;SDS011;1973;50.518;7.318;2023-02-15T01:55:22;39.87;;;20.00;;
3916;SDS011;1973;50.518;7.318;2023-02-15T01:57:51;31.83;;;18.70;;
3916;SDS011;1973;50.518;7.318;2023-02-15T02:00:18;28.77;;;18.07;;
3916;SDS011;1973;50.518;7.318;2023-02-15T02:02:45;30.60;;;18.57;;
3916;SDS011;1973;50.518;7.318;2023-02-15T02:05:15;31.43;;;18.00;;
3916;SDS011;1973;50.518;7.318;2023-02-15T02:07:42;29.70;;;18.67;;
3916;SDS011;1973;50.518;7.318;2023-02-15T02:10:16;29.00;;;16.93;;
3916;SDS011;1973;50.518;7.318;2023-02-15T02:12:46;25.23;;;17.07;;
3916;SDS011;1973;50.518;7.318;2023-02-15T02:15:15;29.33;;;17.30;;
3916;SDS011;1973;50.518;7.318;2023-02-15T02:17:49;27.47;;;17.17;;
3916;SDS011;1973;50.518;7.318;2023-02-15T02:23:19;26.70;;;16.17;;
3916;SDS011;1973;50.518;7.318;2023-02-15T02:34:50;29.73;;;17.07;;
3916;SDS011;1973;50.518;7.318;2023-02-15T02:37:43;24.33;;;15.43;;
3916;SDS011;1973;50.518;7.318;2023-02-15T02:40:34;30.37;;;17.27;;
3916;SDS011;1973;50.518;7.318;2023-02-15T02:43:18;29.60;;;16.47;;
3916;SDS011;1973;50.518;7.318;2023-02-15T02:45:57;27.17;;;16.23;;
3916;SDS011;1973;50.518;7.318;2023-02-15T02:48:27;25.73;;;15.07;;
3916;SDS011;1973;50.518;7.318;2023-02-15T02:50:58;28.60;;;16.90;;
3916;SDS011;1973;50.518;7.318;2023-02-15T02:53:24;25.17;;;15.20;;
3916;SDS011;1973;50.518;7.318;2023-02-15T02:55:53;31.70;;;18.53;;
3916;SDS011;1973;50.518;7.318;2023-02-15T02:58:24;33.53;;;17.80;;
3916;SDS011;1973;50.518;7.318;2023-02-15T03:00:53;28.37;;;15.87;;
3916;SDS011;1973;50.518;7.318;2023-02-15T03:03:27;30.20;;;16.50;;
3916;SDS011;1973;50.518;7.318;2023-02-15T03:05:58;27.73;;;16.57;;
3916;SDS011;1973;50.518;7.318;2023-02-15T03:08:33;30.90;;;18.40;;
3916;SDS011;1973;50.518;7.318;2023-02-15T03:11:04;27.60;;;16.77;;
3916;SDS011;1973;50.518;7.318;2023-02-15T03:13:31;28.80;;;16.57;;
3916;SDS011;1973;50.518;7.318;2023-02-15T03:15:58;25.80;;;15.93;;
3916;SDS011;1973;50.518;7.318;2023-02-15T03:18:46;24.80;;;15.80;;
3916;SDS011;1973;50.518;7.318;2023-02-15T03:21:20;27.50;;;16.43;;
3916;SDS011;1973;50.518;7.318;2023-02-15T03:23:52;26.13;;;15.37;;
3916;SDS011;1973;50.518;7.318;2023-02-15T03:26:26;29.50;;;16.80;;
3916;SDS011;1973;50.518;7.318;2023-02-15T03:28:55;29.00;;;17.13;;
3916;SDS011;1973;50.518;7.318;2023-02-15T03:31:24;25.57;;;17.27;;
3916;SDS011;1973;50.518;7.318;2023-02-15T03:33:57;34.50;;;20.80;;
3916;SDS011;1973;50.518;7.318;2023-02-15T03:36:29;33.20;;;19.23;;
3916;SDS011;1973;50.518;7.318;2023-02-15T03:39:09;30.63;;;17.20;;
3916;SDS011;1973;50.518;7.318;2023-02-15T03:41:48;34.70;;;20.43;;
3916;SDS011;1973;50.518;7.318;2023-02-15T03:44:28;33.70;;;20.30;;
3916;SDS011;1973;50.518;7.318;2023-02-15T03:47:07;35.20;;;20.80;;
3916;SDS011;1973;50.518;7.318;2023-02-15T03:49:47;33.97;;;19.97;;
3916;SDS011;1973;50.518;7.318;2023-02-15T03:52:19;33.20;;;20.30;;
3916;SDS011;1973;50.518;7.318;2023-02-15T03:54:47;35.97;;;19.90;;
3916;SDS011;1973;50.518;7.318;2023-02-15T03:57:17;34.60;;;19.83;;
3916;SDS011;1973;50.518;7.318;2023-02-15T04:00:25;27.00;;;16.20;;
3916;SDS011;1973;50.518;7.318;2023-02-15T04:05:58;28.27;;;17.67;;
3916;SDS011;1973;50.518;7.318;2023-02-15T04:08:27;29.43;;;18.30;;
3916;SDS011;1973;50.518;7.318;2023-02-15T04:11:13;28.47;;;17.07;;
3916;SDS011;1973;50.518;7.318;2023-02-15T04:13:39;32.60;;;19.50;;
3916;SDS011;1973;50.518;7.318;2023-02-15T04:16:06;38.70;;;20.63;;
3916;SDS011;1973;50.518;7.318;2023-02-15T04:18:34;31.40;;;19.80;;
3916;SDS011;1973;50.518;7.318;2023-02-15T04:21:22;31.27;;;18.90;;
3916;SDS011;1973;50.518;7.318;2023-02-15T04:24:08;29.90;;;17.50;;
3916;SDS011;1973;50.518;7.318;2023-02-15T04:26:54;28.47;;;16.40;;
3916;SDS011;1973;50.518;7.318;2023-02-15T04:29:22;34.53;;;19.43;;
3916;SDS011;1973;50.518;7.318;2023-02-15T04:31:50;27.80;;;17.30;;
3916;SDS011;1973;50.518;7.318;2023-02-15T04:34:17;31.93;;;18.90;;
3916;SDS011;1973;50.518;7.318;2023-02-15T04:36:44;29.30;;;16.30;;
3916;SDS011;1973;50.518;7.318;2023-02-15T04:39:14;27.50;;;17.40;;
3916;SDS011;1973;50.518;7.318;2023-02-15T04:41:41;28.83;;;17.07;;
3916;SDS011;1973;50.518;7.318;2023-02-15T04:44:08;27.63;;;16.47;;
3916;SDS011;1973;50.518;7.318;2023-02-15T04:46:34;30.73;;;18.90;;
3916;SDS011;1973;50.518;7.318;2023-02-15T04:49:01;24.80;;;15.17;;
3916;SDS011;1973;50.518;7.318;2023-02-15T04:51:27;25.07;;;16.27;;
3916;SDS011;1973;50.518;7.318;2023-02-15T04:53:54;27.47;;;16.77;;
3916;SDS011;1973;50.518;7.318;2023-02-15T04:56:21;26.63;;;16.60;;
3916;SDS011;1973;50.518;7.318;2023-02-15T04:58:47;25.93;;;16.10;;
3916;SDS011;1973;50.518;7.318;2023-02-15T05:01:14;27.60;;;15.60;;
3916;SDS011;1973;50.518;7.318;2023-02-15T05:03:41;26.63;;;15.90;;
3916;SDS011;1973;50.518;7.318;2023-02-15T05:06:07;29.20;;;16.77;;
3916;SDS011;1973;50.518;7.318;2023-02-15T05:08:34;29.70;;;16.23;;
3916;SDS011;1973;50.518;7.318;2023-02-15T05:11:00;24.47;;;15.43;;
3916;SDS011;1973;50.518;7.318;2023-02-15T05:13:27;25.97;;;16.63;;
3916;SDS011;1973;50.518;7.318;2023-02-15T05:15:53;23.73;;;15.43;;
3916;SDS011;1973;50.518;7.318;2023-02-15T05:18:20;25.90;;;16.70;;
3916;SDS011;1973;50.518;7.318;2023-02-15T05:20:47;23.97;;;15.33;;
3916;SDS011;1973;50.518;7.318;2023-02-15T05:23:14;25.30;;;16.47;;
3916;SDS011;1973;50.518;7.318;2023-02-15T05:25:45;29.27;;;16.33;;
3916;SDS011;1973;50.518;7.318;2023-02-15T05:28:34;22.80;;;14.93;;
3916;SDS011;1973;50.518;7.318;2023-02-15T05:31:15;25.80;;;15.37;;
3916;SDS011;1973;50.518;7.318;2023-02-15T05:33:43;22.50;;;14.17;;
3916;SDS011;1973;50.518;7.318;2023-02-15T05:36:10;20.23;;;12.53;;
3916;SDS011;1973;50.518;7.318;2023-02-15T05:38:37;23.23;;;13.73;;
3916;SDS011;1973;50.518;7.318;2023-02-15T05:41:04;20.97;;;14.10;;
3916;SDS011;1973;50.518;7.318;2023-02-15T05:43:32;25.03;;;15.10;;
3916;SDS011;1973;50.518;7.318;2023-02-15T05:45:59;24.50;;;15.27;;
3916;SDS011;1973;50.518;7.318;2023-02-15T05:48:26;20.10;;;13.50;;
3916;SDS011;1973;50.518;7.318;2023-02-15T05:51:00;22.43;;;13.67;;
3916;SDS011;1973;50.518;7.318;2023-02-15T05:53:31;25.87;;;14.00;;
3916;SDS011;1973;50.518;7.318;2023-02-15T05:55:59;23.90;;;15.60;;
3916;SDS011;1973;50.518;7.318;2023-02-15T05:58:30;21.33;;;12.80;;
3916;SDS011;1973;50.518;7.318;2023-02-15T06:00:58;23.97;;;14.93;;
3916;SDS011;1973;50.518;7.318;2023-02-15T06:03:24;26.90;;;15.17;;
3916;SDS011;1973;50.518;7.318;2023-02-15T06:05:54;25.37;;;14.33;;
3916;SDS011;1973;50.518;7.318;2023-02-15T06:08:20;24.23;;;15.53;;
3916;SDS011;1973;50.518;7.318;2023-02-15T06:10:47;24.77;;;15.40;;
3916;SDS011;1973;50.518;7.318;2023-02-15T06:13:13;21.43;;;13.00;;
3916;SDS011;1973;50.518;7.318;2023-02-15T06:15:40;24.27;;;14.23;;
3916;SDS011;1973;50.518;7.318;2023-02-15T06:18:06;24.07;;;14.23;;
3916;SDS011;1973;50.518;7.318;2023-02-15T06:20:33;21.10;;;13.67;;
3916;SDS011;1973;50.518;7.318;2023-02-15T06:22:59;23.13;;;14.60;;
3916;SDS011;1973;50.518;7.318;2023-02-15T06:25:26;24.37;;;15.20;;
3916;SDS011;1973;50.518;7.318;2023-02-15T06:27:52;22.17;;;14.20;;
3916;SDS011;1973;50.518;7.318;2023-02-15T06:30:19;21.93;;;13.47;;
3916;SDS011;1973;50.518;7.318;2023-02-15T06:32:45;22.97;;;14.17;;
3916;SDS011;1973;50.518;7.318;2023-02-15T06:35:12;21.80;;;14.93;;
3916;SDS011;1973;50.518;7.318;2023-02-15T06:37:38;23.07;;;14.90;;
3916;SDS011;1973;50.518;7.318;2023-02-15T06:40:05;22.10;;;13.20;;
3916;SDS011;1973;50.518;7.318;2023-02-15T06:42:32;23.47;;;14.63;;
3916;SDS011;1973;50.518;7.318;2023-02-15T06:44:59;23.00;;;14.33;;
3916;SDS011;1973;50.518;7.318;2023-02-15T06:47:26;26.27;;;15.20;;
3916;SDS011;1973;50.518;7.318;2023-02-15T06:49:52;22.37;;;13.23;;
3916;SDS011;1973;50.518;7.318;2023-02-15T06:52:19;21.50;;;14.47;;
3916;SDS011;1973;50.518;7.318;2023-02-15T06:54:45;25.83;;;15.00;;
3916;SDS011;1973;50.518;7.318;2023-02-15T06:57:12;22.20;;;14.43;;
3916;SDS011;1973;50.518;7.318;2023-02-15T06:59:38;26.23;;;14.93;;
3916;SDS011;1973;50.518;7.318;2023-02-15T07:02:05;21.33;;;13.30;;
3916;SDS011;1973;50.518;7.318;2023-02-15T07:04:31;21.43;;;13.83;;
3916;SDS011;1973;50.518;7.318;2023-02-15T07:06:58;24.40;;;14.10;;
3916;SDS011;1973;50.518;7.318;2023-02-15T07:09:24;23.10;;;14.60;;
3916;SDS011;1973;50.518;7.318;2023-02-15T07:11:51;20.30;;;13.30;;
3916;SDS011;1973;50.518;7.318;2023-02-15T07:14:36;24.30;;;14.37;;
3916;SDS011;1973;50.518;7.318;2023-02-15T07:17:02;24.00;;;13.63;;
3916;SDS011;1973;50.518;7.318;2023-02-15T07:19:29;22.93;;;14.17;;
3916;SDS011;1973;50.518;7.318;2023-02-15T07:21:55;24.23;;;14.03;;
3916;SDS011;1973;50.518;7.318;2023-02-15T07:24:21;27.63;;;16.00;;
3916;SDS011;1973;50.518;7.318;2023-02-15T07:26:48;27.23;;;14.90;;
3916;SDS011;1973;50.518;7.318;2023-02-15T07:29:14;29.50;;;16.80;;
3916;SDS011;1973;50.518;7.318;2023-02-15T07:31:41;28.27;;;16.40;;
3916;SDS011;1973;50.518;7.318;2023-02-15T07:34:11;27.50;;;15.93;;
3916;SDS011;1973;50.518;7.318;2023-02-15T07:36:38;29.40;;;19.30;;
3916;SDS011;1973;50.518;7.318;2023-02-15T07:39:04;28.47;;;16.50;;
3916;SDS011;1973;50.518;7.318;2023-02-15T07:41:30;28.43;;;17.00;;
3916;SDS011;1973;50.518;7.318;2023-02-15T07:43:57;29.00;;;16.20;;
3916;SDS011;1973;50.518;7.318;2023-02-15T07:46:23;30.07;;;18.00;;
3916;SDS011;1973;50.518;7.318;2023-02-15T07:48:50;27.93;;;16.80;;
3916;SDS011;1973;50.518;7.318;2023-02-15T07:51:16;34.07;;;19.10;;
3916;SDS011;1973;50.518;7.318;2023-02-15T07:53:43;25.77;;;16.30;;
3916;SDS011;1973;50.518;7.318;2023-02-15T07:56:11;31.13;;;18.97;;
3916;SDS011;1973;50.518;7.318;2023-02-15T07:58:38;29.93;;;17.47;;
3916;SDS011;1973;50.518;7.318;2023-02-15T08:01:18;35.83;;;18.40;;
3916;SDS011;1973;50.518;7.318;2023-02-15T08:03:45;31.93;;;17.93;;
3916;SDS011;1973;50.518;7.318;2023-02-15T08:06:12;31.67;;;17.80;;
3916;SDS011;1973;50.518;7.318;2023-02-15T08:08:39;28.63;;;17.07;;
3916;SDS011;1973;50.518;7.318;2023-02-15T08:14:09;27.43;;;16.07;;
3916;SDS011;1973;50.518;7.318;2023-02-15T08:16:41;30.80;;;17.70;;
3916;SDS011;1973;50.518;7.318;2023-02-15T08:19:13;30.10;;;17.23;;
3916;SDS011;1973;50.518;7.318;2023-02-15T08:21:46;26.63;;;17.00;;
3916;SDS011;1973;50.518;7.318;2023-02-15T08:24:15;33.83;;;19.70;;
3916;SDS011;1973;50.518;7.318;2023-02-15T08:26:43;31.00;;;19.27;;
3916;SDS011;1973;50.518;7.318;2023-02-15T08:29:14;33.80;;;21.10;;
3916;SDS011;1973;50.518;7.318;2023-02-15T08:31:42;36.37;;;20.23;;
3916;SDS011;1973;50.518;7.318;2023-02-15T08:34:10;32.77;;;20.17;;
3916;SDS011;1973;50.518;7.318;2023-02-15T08:36:39;28.50;;;17.40;;
3916;SDS011;1973;50.518;7.318;2023-02-15T08:39:06;30.77;;;19.30;;
3916;SDS011;1973;50.518;7.318;2023-02-15T08:41:36;27.00;;;16.40;;
3916;SDS011;1973;50.518;7.318;2023-02-15T08:44:05;29.43;;;17.30;;
3916;SDS011;1973;50.518;7.318;2023-02-15T08:46:34;24.43;;;15.73;;
3916;SDS011;1973;50.518;7.318;2023-02-15T08:49:03;30.87;;;16.93;;
3916;SDS011;1973;50.518;7.318;2023-02-15T08:51:31;26.23;;;16.10;;
3916;SDS011;1973;50.518;7.318;2023-02-15T08:54:00;27.17;;;16.57;;
3916;SDS011;1973;50.518;7.318;2023-02-15T08:56:31;27.80;;;15.73;;
3916;SDS011;1973;50.518;7.318;2023-02-15T08:59:00;25.53;;;16.07;;
3916;SDS011;1973;50.518;7.318;2023-02-15T09:01:28;27.77;;;17.60;;
3916;SDS011;1973;50.518;7.318;2023-02-15T09:03:57;27.10;;;16.97;;
3916;SDS011;1973;50.518;7.318;2023-02-15T09:06:26;27.80;;;17.47;;
3916;SDS011;1973;50.518;7.318;2023-02-15T09:08:53;24.40;;;16.67;;
3916;SDS011;1973;50.518;7.318;2023-02-15T09:11:21;26.43;;;16.93;;
3916;SDS011;1973;50.518;7.318;2023-02-15T09:13:51;26.80;;;17.43;;
3916;SDS011;1973;50.518;7.318;2023-02-15T09:16:22;29.00;;;16.13;;
3916;SDS011;1973;50.518;7.318;2023-02-15T09:18:50;25.07;;;16.70;;
3916;SDS011;1973;50.518;7.318;2023-02-15T09:21:18;27.20;;;17.60;;
3916;SDS011;1973;50.518;7.318;2023-02-15T09:23:47;25.50;;;17.40;;
3916;SDS011;1973;50.518;7.318;2023-02-15T09:26:16;25.47;;;16.90;;
3916;SDS011;1973;50.518;7.318;2023-02-15T09:28:47;29.17;;;19.07;;
3916;SDS011;1973;50.518;7.318;2023-02-15T09:31:16;29.13;;;17.90;;
3916;SDS011;1973;50.518;7.318;2023-02-15T09:33:44;25.83;;;17.73;;
3916;SDS011;1973;50.518;7.318;2023-02-15T09:36:16;27.20;;;17.40;;
3916;SDS011;1973;50.518;7.318;2023-02-15T09:38:50;30.90;;;18.47;;
3916;SDS011;1973;50.518;7.318;2023-02-15T09:44:27;27.87;;;17.53;;
3916;SDS011;1973;50.518;7.318;2023-02-15T09:50:06;24.80;;;16.10;;
3916;SDS011;1973;50.518;7.318;2023-02-15T10:09:36;29.47;;;19.27;;
3916;SDS011;1973;50.518;7.318;2023-02-15T10:12:31;26.57;;;17.93;;
3916;SDS011;1973;50.518;7.318;2023-02-15T10:18:34;24.97;;;17.00;;
3916;SDS011;1973;50.518;7.318;2023-02-15T10:21:14;26.40;;;16.30;;
3916;SDS011;1973;50.518;7.318;2023-02-15T10:26:43;22.60;;;15.83;;
3916;SDS011;1973;50.518;7.318;2023-02-15T10:32:06;21.30;;;15.33;;
3916;SDS011;1973;50.518;7.318;2023-02-15T10:34:48;23.03;;;16.50;;
3916;SDS011;1973;50.518;7.318;2023-02-15T10:39:53;23.17;;;16.93;;
3916;SDS011;1973;50.518;7.318;2023-02-15T10:50:59;23.57;;;16.60;;
3916;SDS011;1973;50.518;7.318;2023-02-15T10:53:35;25.17;;;17.23;;
3916;SDS011;1973;50.518;7.318;2023-02-15T11:05:05;22.10;;;15.33;;
3916;SDS011;1973;50.518;7.318;2023-02-15T11:07:44;18.57;;;14.13;;
3916;SDS011;1973;50.518;7.318;2023-02-15T11:10:48;19.30;;;14.23;;
3916;SDS011;1973;50.518;7.318;2023-02-15T11:13:13;18.33;;;13.73;;
3916;SDS011;1973;50.518;7.318;2023-02-15T11:15:53;20.03;;;14.90;;
3916;SDS011;1973;50.518;7.318;2023-02-15T11:18:36;16.40;;;12.63;;
3916;SDS011;1973;50.518;7.318;2023-02-15T11:21:13;18.10;;;14.60;;
3916;SDS011;1973;50.518;7.318;2023-02-15T11:23:46;18.87;;;13.83;;
3916;SDS011;1973;50.518;7.318;2023-02-15T11:26:36;19.33;;;14.63;;
3916;SDS011;1973;50.518;7.318;2023-02-15T11:29:08;19.03;;;13.80;;
3916;SDS011;1973;50.518;7.318;2023-02-15T11:31:46;21.90;;;15.33;;
3916;SDS011;1973;50.518;7.318;2023-02-15T11:34:20;18.63;;;14.00;;
3916;SDS011;1973;50.518;7.318;2023-02-15T11:36:54;18.73;;;14.67;;
3916;SDS011;1973;50.518;7.318;2023-02-15T11:39:24;24.00;;;14.80;;
3916;SDS011;1973;50.518;7.318;2023-02-15T11:41:59;18.67;;;14.70;;
3916;SDS011;1973;50.518;7.318;2023-02-15T11:44:32;17.90;;;12.87;;
3916;SDS011;1973;50.518;7.318;2023-02-15T11:47:02;17.50;;;13.10;;
3916;SDS011;1973;50.518;7.318;2023-02-15T11:49:32;17.77;;;13.77;;
3916;SDS011;1973;50.518;7.318;2023-02-15T11:52:07;17.20;;;12.73;;
3916;SDS011;1973;50.518;7.318;2023-02-15T11:54:41;17.27;;;13.00;;
3916;SDS011;1973;50.518;7.318;2023-02-15T11:57:15;18.13;;;14.50;;
3916;SDS011;1973;50.518;7.318;2023-02-15T12:02:42;17.60;;;13.57;;
3916;SDS011;1973;50.518;7.318;2023-02-15T12:05:14;16.80;;;13.73;;
3916;SDS011;1973;50.518;7.318;2023-02-15T12:07:46;17.13;;;13.43;;
3916;SDS011;1973;50.518;7.318;2023-02-15T12:10:28;17.40;;;13.37;;
3916;SDS011;1973;50.518;7.318;2023-02-15T12:13:08;16.60;;;12.77;;
3916;SDS011;1973;50.518;7.318;2023-02-15T12:15:40;16.03;;;12.90;;
3916;SDS011;1973;50.518;7.318;2023-02-15T12:21:10;19.30;;;12.40;;
3916;SDS011;1973;50.518;7.318;2023-02-15T12:23:41;20.73;;;13.47;;
3916;SDS011;1973;50.518;7.318;2023-02-15T12:26:14;14.90;;;11.97;;
3916;SDS011;1973;50.518;7.318;2023-02-15T12:28:49;15.80;;;12.40;;
3916;SDS011;1973;50.518;7.318;2023-02-15T12:31:22;18.30;;;13.57;;
3916;SDS011;1973;50.518;7.318;2023-02-15T12:33:50;16.90;;;13.10;;
3916;SDS011;1973;50.518;7.318;2023-02-15T12:41:43;14.27;;;12.77;;
3916;SDS011;1973;50.518;7.318;2023-02-15T12:44:16;17.73;;;13.67;;
3916;SDS011;1973;50.518;7.318;2023-02-15T12:53:16;18.50;;;14.63;;
3916;SDS011;1973;50.518;7.318;2023-02-15T12:55:57;16.83;;;13.73;;
3916;SDS011;1973;50.518;7.318;2023-02-15T12:58:26;17.43;;;13.97;;
3916;SDS011;1973;50.518;7.318;2023-02-15T13:03:35;17.03;;;14.13;;
3916;SDS011;1973;50.518;7.318;2023-02-15T13:06:04;16.13;;;13.67;;
3916;SDS011;1973;50.518;7.318;2023-02-15T13:08:34;15.27;;;13.20;;
3916;SDS011;1973;50.518;7.318;2023-02-15T13:11:08;17.93;;;14.07;;
3916;SDS011;1973;50.518;7.318;2023-02-15T13:13:57;14.50;;;13.00;;
3916;SDS011;1973;50.518;7.318;2023-02-15T13:16:30;20.00;;;13.23;;
3916;SDS011;1973;50.518;7.318;2023-02-15T13:19:02;17.30;;;14.10;;
3916;SDS011;1973;50.518;7.318;2023-02-15T13:21:39;17.50;;;12.90;;
3916;SDS011;1973;50.518;7.318;2023-02-15T13:26:48;16.67;;;14.50;;
3916;SDS011;1973;50.518;7.318;2023-02-15T13:29:17;15.20;;;13.20;;
3916;SDS011;1973;50.518;7.318;2023-02-15T13:31:49;16.80;;;14.00;;
3916;SDS011;1973;50.518;7.318;2023-02-15T13:34:25;17.13;;;13.60;;
3916;SDS011;1973;50.518;7.318;2023-02-15T13:39:39;21.33;;;13.33;;
3916;SDS011;1973;50.518;7.318;2023-02-15T13:42:20;18.40;;;14.80;;
3916;SDS011;1973;50.518;7.318;2023-02-15T13:50:37;16.03;;;13.93;;
3916;SDS011;1973;50.518;7.318;2023-02-15T14:01:55;15.00;;;13.40;;
3916;SDS011;1973;50.518;7.318;2023-02-15T14:07:46;17.17;;;13.47;;
3916;SDS011;1973;50.518;7.318;2023-02-15T14:13:25;17.70;;;13.17;;
3916;SDS011;1973;50.518;7.318;2023-02-15T14:27:24;18.20;;;13.30;;
3916;SDS011;1973;50.518;7.318;2023-02-15T14:30:09;16.80;;;13.30;;
3916;SDS011;1973;50.518;7.318;2023-02-15T14:32:42;13.40;;;11.33;;
3916;SDS011;1973;50.518;7.318;2023-02-15T14:35:14;15.70;;;12.67;;
3916;SDS011;1973;50.518;7.318;2023-02-15T14:37:46;14.17;;;12.00;;
3916;SDS011;1973;50.518;7.318;2023-02-15T14:40:17;15.40;;;13.30;;
3916;SDS011;1973;50.518;7.318;2023-02-15T14:43:06;12.87;;;11.53;;
3916;SDS011;1973;50.518;7.318;2023-02-15T14:45:46;17.57;;;12.93;;
3916;SDS011;1973;50.518;7.318;2023-02-15T14:48:20;15.10;;;12.33;;
3916;SDS011;1973;50.518;7.318;2023-02-15T14:50:51;14.93;;;12.50;;
3916;SDS011;1973;50.518;7.318;2023-02-15T15:01:28;15.80;;;11.93;;
3916;SDS011;1973;50.518;7.318;2023-02-15T15:03:58;18.40;;;13.33;;
3916;SDS011;1973;50.518;7.318;2023-02-15T15:06:32;16.33;;;12.90;;
3916;SDS011;1973;50.518;7.318;2023-02-15T15:09:08;17.27;;;12.90;;
3916;SDS011;1973;50.518;7.318;2023-02-15T15:11:39;14.83;;;12.47;;
3916;SDS011;1973;50.518;7.318;2023-02-15T15:14:36;14.80;;;11.97;;
3916;SDS011;1973;50.518;7.318;2023-02-15T15:16:58;14.50;;;11.70;;
3916;SDS011;1973;50.518;7.318;2023-02-15T15:22:23;15.10;;;11.97;;
3916;SDS011;1973;50.518;7.318;2023-02-15T15:24:52;16.00;;;12.77;;
3916;SDS011;1973;50.518;7.318;2023-02-15T15:35:25;18.37;;;12.20;;
3916;SDS011;1973;50.518;7.318;2023-02-15T15:49:19;16.80;;;13.53;;
3916;SDS011;1973;50.518;7.318;2023-02-15T15:51:47;13.90;;;11.07;;
3916;SDS011;1973;50.518;7.318;2023-02-15T15:54:21;15.17;;;11.90;;
3916;SDS011;1973;50.518;7.318;2023-02-15T15:57:01;16.67;;;11.50;;
3916;SDS011;1973;50.518;7.318;2023-02-15T15:59:29;19.43;;;12.50;;
3916;SDS011;1973;50.518;7.318;2023-02-15T16:02:05;14.43;;;12.40;;
3916;SDS011;1973;50.518;7.318;2023-02-15T16:04:33;15.43;;;11.93;;
3916;SDS011;1973;50.518;7.318;2023-02-15T16:07:20;15.53;;;12.00;;
3916;SDS011;1973;50.518;7.318;2023-02-15T16:09:56;16.90;;;11.97;;
3916;SDS011;1973;50.518;7.318;2023-02-15T16:12:23;20.20;;;12.60;;
3916;SDS011;1973;50.518;7.318;2023-02-15T16:14:51;17.13;;;12.90;;
3916;SDS011;1973;50.518;7.318;2023-02-15T16:17:20;19.27;;;12.00;;
3916;SDS011;1973;50.518;7.318;2023-02-15T16:19:49;16.57;;;12.50;;
3916;SDS011;1973;50.518;7.318;2023-02-15T16:22:24;16.57;;;13.10;;
3916;SDS011;1973;50.518;7.318;2023-02-15T16:27:35;17.23;;;12.93;;
3916;SDS011;1973;50.518;7.318;2023-02-15T16:35:34;16.90;;;13.10;;
3916;SDS011;1973;50.518;7.318;2023-02-15T16:38:02;15.73;;;13.10;;
3916;SDS011;1973;50.518;7.318;2023-02-15T16:40:40;18.90;;;13.10;;
3916;SDS011;1973;50.518;7.318;2023-02-15T16:43:20;18.50;;;12.90;;
3916;SDS011;1973;50.518;7.318;2023-02-15T16:45:53;17.07;;;13.13;;
3916;SDS011;1973;50.518;7.318;2023-02-15T16:48:33;14.37;;;11.40;;
3916;SDS011;1973;50.518;7.318;2023-02-15T16:51:04;18.00;;;14.10;;
3916;SDS011;1973;50.518;7.318;2023-02-15T16:53:31;20.47;;;13.50;;
3916;SDS011;1973;50.518;7.318;2023-02-15T16:55:58;19.40;;;15.60;;
3916;SDS011;1973;50.518;7.318;2023-02-15T16:58:45;20.17;;;15.50;;
3916;SDS011;1973;50.518;7.318;2023-02-15T17:01:16;19.80;;;15.60;;
3916;SDS011;1973;50.518;7.318;2023-02-15T17:03:48;23.57;;;18.63;;
3916;SDS011;1973;50.518;7.318;2023-02-15T17:06:23;19.77;;;16.03;;
3916;SDS011;1973;50.518;7.318;2023-02-15T17:08:52;20.30;;;15.60;;
3916;SDS011;1973;50.518;7.318;2023-02-15T17:11:37;18.87;;;15.93;;
3916;SDS011;1973;50.518;7.318;2023-02-15T17:19:40;27.40;;;21.67;;
3916;SDS011;1973;50.518;7.318;2023-02-15T17:22:14;29.20;;;24.60;;
3916;SDS011;1973;50.518;7.318;2023-02-15T17:24:45;30.63;;;22.73;;
3916;SDS011;1973;50.518;7.318;2023-02-15T17:27:19;41.30;;;29.47;;
3916;SDS011;1973;50.518;7.318;2023-02-15T17:29:51;38.97;;;28.50;;
3916;SDS011;1973;50.518;7.318;2023-02-15T17:32:32;28.50;;;21.37;;
3916;SDS011;1973;50.518;7.318;2023-02-15T17:37:43;21.60;;;17.17;;
3916;SDS011;1973;50.518;7.318;2023-02-15T17:42:47;20.40;;;15.97;;
3916;SDS011;1973;50.518;7.318;2023-02-15T17:45:14;19.83;;;15.40;;
3916;SDS011;1973;50.518;7.318;2023-02-15T17:47:41;22.20;;;15.63;;
3916;SDS011;1973;50.518;7.318;2023-02-15T17:50:10;21.70;;;16.80;;
3916;SDS011;1973;50.518;7.318;2023-02-15T17:52:44;20.83;;;15.40;;
3916;SDS011;1973;50.518;7.318;2023-02-15T17:55:15;24.10;;;18.30;;
3916;SDS011;1973;50.518;7.318;2023-02-15T17:58:04;19.03;;;15.23;;
3916;SDS011;1973;50.518;7.318;2023-02-15T18:00:33;19.40;;;15.20;;
3916;SDS011;1973;50.518;7.318;2023-02-15T18:03:21;18.53;;;15.10;;
3916;SDS011;1973;50.518;7.318;2023-02-15T18:06:06;18.83;;;15.57;;
3916;SDS011;1973;50.518;7.318;2023-02-15T18:08:51;23.87;;;16.70;;
3916;SDS011;1973;50.518;7.318;2023-02-15T18:11:37;23.30;;;17.70;;
3916;SDS011;1973;50.518;7.318;2023-02-15T18:14:05;22.50;;;19.57;;